sensor_id;sensor_type;location;lat;lon;timestamp;temperature;humidity
42227;DHT22;27892;52.378;13.122;2022-11-15T00:01:36;7.80;73.60
42227;DHT22;27892;52.378;13.122;2022-11-15T00:04:05;7.80;74.80
42227;DHT22;27892;52.378;13.122;2022-11-15T00:06:31;7.90;74.80
42227;DHT22;27892;52.378;13.122;2022-11-15T00:09:00;8.00;74.40
42227;DHT22;27892;52.378;13.122;2022-11-15T00:11:26;8.00;73.90
42227;DHT22;27892;52.378;13.122;2022-11-15T00:13:55;7.90;73.30
42227;DHT22;27892;52.378;13.122;2022-11-15T00:16:21;7.80;73.10
42227;DHT22;27892;52.378;13.122;2022-11-15T00:18:47;7.80;74.30
42227;DHT22;27892;52.378;13.122;2022-11-15T00:21:13;7.80;73.90
42227;DHT22;27892;52.378;13.122;2022-11-15T00:23:40;7.80;73.90
42227;DHT22;27892;52.378;13.122;2022-11-15T00:26:06;7.80;73.40
42227;DHT22;27892;52.378;13.122;2022-11-15T00:28:32;7.70;72.90
42227;DHT22;27892;52.378;13.122;2022-11-15T00:31:06;7.70;73.10
42227;DHT22;27892;52.378;13.122;2022-11-15T00:33:33;7.70;73.20
42227;DHT22;27892;52.378;13.122;2022-11-15T00:36:03;7.60;72.80
42227;DHT22;27892;52.378;13.122;2022-11-15T00:38:34;7.60;72.90
42227;DHT22;27892;52.378;13.122;2022-11-15T00:41:00;7.60;73.10
42227;DHT22;27892;52.378;13.122;2022-11-15T00:43:26;7.60;73.00
42227;DHT22;27892;52.378;13.122;2022-11-15T00:45:52;7.60;72.90
42227;DHT22;27892;52.378;13.122;2022-11-15T00:48:18;7.60;72.60
42227;DHT22;27892;52.378;13.122;2022-11-15T00:50:44;7.60;72.40
42227;DHT22;27892;52.378;13.122;2022-11-15T00:53:09;7.60;72.30
42227;DHT22;27892;52.378;13.122;2022-11-15T00:55:35;7.50;71.60
42227;DHT22;27892;52.378;13.122;2022-11-15T00:58:01;7.50;72.00
42227;DHT22;27892;52.378;13.122;2022-11-15T01:00:26;7.30;72.00
42227;DHT22;27892;52.378;13.122;2022-11-15T01:02:52;7.20;72.70
42227;DHT22;27892;52.378;13.122;2022-11-15T01:05:17;7.20;72.90
42227;DHT22;27892;52.378;13.122;2022-11-15T01:07:43;7.30;72.70
42227;DHT22;27892;52.378;13.122;2022-11-15T01:10:09;7.30;72.70
42227;DHT22;27892;52.378;13.122;2022-11-15T01:12:35;7.20;72.80
42227;DHT22;27892;52.378;13.122;2022-11-15T01:15:00;7.20;72.60
42227;DHT22;27892;52.378;13.122;2022-11-15T01:17:26;7.30;72.70
42227;DHT22;27892;52.378;13.122;2022-11-15T01:19:52;7.30;72.70
42227;DHT22;27892;52.378;13.122;2022-11-15T01:22:17;7.20;72.10
42227;DHT22;27892;52.378;13.122;2022-11-15T01:24:43;7.10;72.20
42227;DHT22;27892;52.378;13.122;2022-11-15T01:27:09;7.00;72.50
42227;DHT22;27892;52.378;13.122;2022-11-15T01:29:35;7.00;73.40
42227;DHT22;27892;52.378;13.122;2022-11-15T01:32:00;7.00;73.40
42227;DHT22;27892;52.378;13.122;2022-11-15T01:34:26;7.00;73.10
42227;DHT22;27892;52.378;13.122;2022-11-15T01:36:52;7.00;72.70
42227;DHT22;27892;52.378;13.122;2022-11-15T01:39:18;7.00;72.90
42227;DHT22;27892;52.378;13.122;2022-11-15T01:41:43;6.90;73.00
42227;DHT22;27892;52.378;13.122;2022-11-15T01:47:00;6.90;73.20
42227;DHT22;27892;52.378;13.122;2022-11-15T01:49:29;6.90;73.00
42227;DHT22;27892;52.378;13.122;2022-11-15T01:51:55;6.90;73.00
42227;DHT22;27892;52.378;13.122;2022-11-15T01:54:22;6.90;73.00
42227;DHT22;27892;52.378;13.122;2022-11-15T01:57:12;6.90;72.90
42227;DHT22;27892;52.378;13.122;2022-11-15T01:59:42;6.90;72.90
42227;DHT22;27892;52.378;13.122;2022-11-15T02:02:08;6.90;72.50
42227;DHT22;27892;52.378;13.122;2022-11-15T02:04:39;6.80;72.50
42227;DHT22;27892;52.378;13.122;2022-11-15T02:07:06;6.80;73.10
42227;DHT22;27892;52.378;13.122;2022-11-15T02:09:36;6.80;73.50
42227;DHT22;27892;52.378;13.122;2022-11-15T02:12:01;6.80;74.30
42227;DHT22;27892;52.378;13.122;2022-11-15T02:14:29;6.80;74.60
42227;DHT22;27892;52.378;13.122;2022-11-15T02:17:09;6.80;74.80
42227;DHT22;27892;52.378;13.122;2022-11-15T02:26:04;7.10;75.90
42227;DHT22;27892;52.378;13.122;2022-11-15T02:31:05;7.20;75.70
42227;DHT22;27892;52.378;13.122;2022-11-15T02:34:01;7.20;75.50
42227;DHT22;27892;52.378;13.122;2022-11-15T02:39:38;7.30;75.90
42227;DHT22;27892;52.378;13.122;2022-11-15T02:42:26;7.30;76.20
42227;DHT22;27892;52.378;13.122;2022-11-15T02:45:22;7.30;76.40
42227;DHT22;27892;52.378;13.122;2022-11-15T02:47:50;7.30;76.60
42227;DHT22;27892;52.378;13.122;2022-11-15T02:50:19;7.30;77.30
42227;DHT22;27892;52.378;13.122;2022-11-15T02:52:47;7.40;77.80
42227;DHT22;27892;52.378;13.122;2022-11-15T02:55:32;7.50;77.50
42227;DHT22;27892;52.378;13.122;2022-11-15T03:12:06;7.90;78.60
42227;DHT22;27892;52.378;13.122;2022-11-15T03:14:37;7.90;78.30
42227;DHT22;27892;52.378;13.122;2022-11-15T03:17:33;7.90;78.20
42227;DHT22;27892;52.378;13.122;2022-11-15T03:20:04;8.00;78.50
42227;DHT22;27892;52.378;13.122;2022-11-15T03:22:35;8.00;78.40
42227;DHT22;27892;52.378;13.122;2022-11-15T03:25:05;8.00;78.40
42227;DHT22;27892;52.378;13.122;2022-11-15T03:27:37;8.00;78.40
42227;DHT22;27892;52.378;13.122;2022-11-15T03:30:07;8.10;78.60
42227;DHT22;27892;52.378;13.122;2022-11-15T03:32:44;8.10;78.90
42227;DHT22;27892;52.378;13.122;2022-11-15T03:35:21;8.20;78.80
42227;DHT22;27892;52.378;13.122;2022-11-15T03:38:11;8.20;78.60
42227;DHT22;27892;52.378;13.122;2022-11-15T03:40:44;8.20;78.60
42227;DHT22;27892;52.378;13.122;2022-11-15T03:43:26;8.20;78.40
42227;DHT22;27892;52.378;13.122;2022-11-15T03:46:07;8.30;78.40
42227;DHT22;27892;52.378;13.122;2022-11-15T03:48:49;8.20;78.20
42227;DHT22;27892;52.378;13.122;2022-11-15T03:51:17;8.20;78.20
42227;DHT22;27892;52.378;13.122;2022-11-15T03:53:43;8.20;77.90
42227;DHT22;27892;52.378;13.122;2022-11-15T03:56:09;8.20;78.10
42227;DHT22;27892;52.378;13.122;2022-11-15T03:58:53;8.20;77.90
42227;DHT22;27892;52.378;13.122;2022-11-15T04:01:37;8.10;78.40
42227;DHT22;27892;52.378;13.122;2022-11-15T04:04:22;8.20;78.40
42227;DHT22;27892;52.378;13.122;2022-11-15T04:07:06;8.20;78.40
42227;DHT22;27892;52.378;13.122;2022-11-15T04:09:50;8.20;78.00
42227;DHT22;27892;52.378;13.122;2022-11-15T04:12:46;8.20;77.80
42227;DHT22;27892;52.378;13.122;2022-11-15T04:15:16;8.20;77.70
42227;DHT22;27892;52.378;13.122;2022-11-15T04:17:53;8.20;77.60
42227;DHT22;27892;52.378;13.122;2022-11-15T04:20:22;8.20;77.40
42227;DHT22;27892;52.378;13.122;2022-11-15T04:23:20;8.20;77.40
42227;DHT22;27892;52.378;13.122;2022-11-15T04:26:09;8.20;77.80
42227;DHT22;27892;52.378;13.122;2022-11-15T04:28:36;8.20;78.10
42227;DHT22;27892;52.378;13.122;2022-11-15T04:31:25;8.20;77.50
42227;DHT22;27892;52.378;13.122;2022-11-15T04:33:50;8.20;77.20
42227;DHT22;27892;52.378;13.122;2022-11-15T04:36:16;8.20;76.80
42227;DHT22;27892;52.378;13.122;2022-11-15T04:39:00;8.10;76.20
42227;DHT22;27892;52.378;13.122;2022-11-15T04:41:26;8.00;76.20
42227;DHT22;27892;52.378;13.122;2022-11-15T04:43:52;8.00;76.00
42227;DHT22;27892;52.378;13.122;2022-11-15T04:46:19;8.00;75.60
42227;DHT22;27892;52.378;13.122;2022-11-15T04:48:44;7.90;75.20
42227;DHT22;27892;52.378;13.122;2022-11-15T04:51:10;7.90;75.30
42227;DHT22;27892;52.378;13.122;2022-11-15T04:53:36;7.80;75.30
42227;DHT22;27892;52.378;13.122;2022-11-15T04:56:01;7.80;74.80
42227;DHT22;27892;52.378;13.122;2022-11-15T04:58:27;7.70;75.00
42227;DHT22;27892;52.378;13.122;2022-11-15T05:00:53;7.70;75.00
42227;DHT22;27892;52.378;13.122;2022-11-15T05:03:18;7.70;74.40
42227;DHT22;27892;52.378;13.122;2022-11-15T05:06:03;7.70;74.50
42227;DHT22;27892;52.378;13.122;2022-11-15T05:08:28;7.70;74.40
42227;DHT22;27892;52.378;13.122;2022-11-15T05:10:54;7.70;74.10
42227;DHT22;27892;52.378;13.122;2022-11-15T05:13:20;7.60;73.70
42227;DHT22;27892;52.378;13.122;2022-11-15T05:15:46;7.60;73.80
42227;DHT22;27892;52.378;13.122;2022-11-15T05:18:13;7.60;73.70
42227;DHT22;27892;52.378;13.122;2022-11-15T05:20:39;7.50;73.50
42227;DHT22;27892;52.378;13.122;2022-11-15T05:23:04;7.50;73.40
42227;DHT22;27892;52.378;13.122;2022-11-15T05:25:30;7.40;73.30
42227;DHT22;27892;52.378;13.122;2022-11-15T05:27:56;7.40;73.30
42227;DHT22;27892;52.378;13.122;2022-11-15T05:30:22;7.30;73.60
42227;DHT22;27892;52.378;13.122;2022-11-15T05:32:47;7.20;74.30
42227;DHT22;27892;52.378;13.122;2022-11-15T05:35:25;7.20;74.80
42227;DHT22;27892;52.378;13.122;2022-11-15T05:37:52;7.20;75.10
42227;DHT22;27892;52.378;13.122;2022-11-15T05:40:18;7.20;74.90
42227;DHT22;27892;52.378;13.122;2022-11-15T05:42:45;7.20;74.50
42227;DHT22;27892;52.378;13.122;2022-11-15T05:45:11;7.20;74.30
42227;DHT22;27892;52.378;13.122;2022-11-15T05:47:37;7.20;74.30
42227;DHT22;27892;52.378;13.122;2022-11-15T05:50:05;7.20;74.30
42227;DHT22;27892;52.378;13.122;2022-11-15T05:52:34;7.20;74.00
42227;DHT22;27892;52.378;13.122;2022-11-15T05:55:03;7.20;74.00
42227;DHT22;27892;52.378;13.122;2022-11-15T05:57:29;7.20;73.90
42227;DHT22;27892;52.378;13.122;2022-11-15T05:59:55;7.30;73.90
42227;DHT22;27892;52.378;13.122;2022-11-15T06:02:21;7.30;73.80
42227;DHT22;27892;52.378;13.122;2022-11-15T06:04:46;7.30;73.60
42227;DHT22;27892;52.378;13.122;2022-11-15T06:07:12;7.30;73.30
42227;DHT22;27892;52.378;13.122;2022-11-15T06:09:38;7.30;73.00
42227;DHT22;27892;52.378;13.122;2022-11-15T06:12:03;7.30;73.10
42227;DHT22;27892;52.378;13.122;2022-11-15T06:14:29;7.30;73.10
42227;DHT22;27892;52.378;13.122;2022-11-15T06:16:55;7.30;73.10
42227;DHT22;27892;52.378;13.122;2022-11-15T06:19:21;7.30;72.90
42227;DHT22;27892;52.378;13.122;2022-11-15T06:21:46;7.20;72.60
42227;DHT22;27892;52.378;13.122;2022-11-15T06:24:12;7.20;72.70
42227;DHT22;27892;52.378;13.122;2022-11-15T06:26:38;7.20;72.50
42227;DHT22;27892;52.378;13.122;2022-11-15T06:29:04;7.20;72.30
42227;DHT22;27892;52.378;13.122;2022-11-15T06:31:30;7.20;72.10
42227;DHT22;27892;52.378;13.122;2022-11-15T06:33:55;7.20;72.40
42227;DHT22;27892;52.378;13.122;2022-11-15T06:36:21;7.20;72.50
42227;DHT22;27892;52.378;13.122;2022-11-15T06:38:47;7.20;72.10
42227;DHT22;27892;52.378;13.122;2022-11-15T06:41:13;7.20;72.70
42227;DHT22;27892;52.378;13.122;2022-11-15T06:43:40;7.20;72.80
42227;DHT22;27892;52.378;13.122;2022-11-15T06:46:06;7.20;72.70
42227;DHT22;27892;52.378;13.122;2022-11-15T06:48:33;7.20;72.60
42227;DHT22;27892;52.378;13.122;2022-11-15T06:51:00;7.30;72.90
42227;DHT22;27892;52.378;13.122;2022-11-15T06:53:27;7.40;73.60
42227;DHT22;27892;52.378;13.122;2022-11-15T06:55:53;7.40;72.60
42227;DHT22;27892;52.378;13.122;2022-11-15T06:58:20;7.50;72.70
42227;DHT22;27892;52.378;13.122;2022-11-15T07:00:46;7.60;72.60
42227;DHT22;27892;52.378;13.122;2022-11-15T07:03:12;7.60;72.50
42227;DHT22;27892;52.378;13.122;2022-11-15T07:05:38;7.60;72.30
42227;DHT22;27892;52.378;13.122;2022-11-15T07:08:04;7.70;71.90
42227;DHT22;27892;52.378;13.122;2022-11-15T07:10:30;7.70;71.60
42227;DHT22;27892;52.378;13.122;2022-11-15T07:12:56;7.60;71.50
42227;DHT22;27892;52.378;13.122;2022-11-15T07:15:24;7.70;71.80
42227;DHT22;27892;52.378;13.122;2022-11-15T07:17:50;7.70;71.90
42227;DHT22;27892;52.378;13.122;2022-11-15T07:20:16;7.80;72.00
42227;DHT22;27892;52.378;13.122;2022-11-15T07:22:42;7.90;72.00
42227;DHT22;27892;52.378;13.122;2022-11-15T07:25:11;7.90;71.80
42227;DHT22;27892;52.378;13.122;2022-11-15T07:27:37;8.00;71.80
42227;DHT22;27892;52.378;13.122;2022-11-15T07:30:03;8.10;71.60
42227;DHT22;27892;52.378;13.122;2022-11-15T07:32:29;8.20;71.70
42227;DHT22;27892;52.378;13.122;2022-11-15T07:34:55;8.30;72.00
42227;DHT22;27892;52.378;13.122;2022-11-15T07:37:20;8.40;71.80
42227;DHT22;27892;52.378;13.122;2022-11-15T07:39:47;8.50;71.30
42227;DHT22;27892;52.378;13.122;2022-11-15T07:42:12;8.60;72.00
42227;DHT22;27892;52.378;13.122;2022-11-15T07:44:57;8.70;72.70
42227;DHT22;27892;52.378;13.122;2022-11-15T07:47:22;8.80;73.00
42227;DHT22;27892;52.378;13.122;2022-11-15T07:49:48;9.00;73.60
42227;DHT22;27892;52.378;13.122;2022-11-15T07:52:14;9.10;74.20
42227;DHT22;27892;52.378;13.122;2022-11-15T07:54:39;9.30;74.40
42227;DHT22;27892;52.378;13.122;2022-11-15T07:57:05;9.50;74.50
42227;DHT22;27892;52.378;13.122;2022-11-15T07:59:32;9.60;75.50
42227;DHT22;27892;52.378;13.122;2022-11-15T08:01:58;9.70;75.50
42227;DHT22;27892;52.378;13.122;2022-11-15T08:04:23;9.80;75.10
42227;DHT22;27892;52.378;13.122;2022-11-15T08:06:49;10.00;73.80
42227;DHT22;27892;52.378;13.122;2022-11-15T08:09:14;10.00;74.60
42227;DHT22;27892;52.378;13.122;2022-11-15T08:11:40;10.10;73.80
42227;DHT22;27892;52.378;13.122;2022-11-15T08:14:06;10.30;74.30
42227;DHT22;27892;52.378;13.122;2022-11-15T08:16:32;10.40;73.80
42227;DHT22;27892;52.378;13.122;2022-11-15T08:18:57;10.60;73.60
42227;DHT22;27892;52.378;13.122;2022-11-15T08:21:23;10.60;73.20
42227;DHT22;27892;52.378;13.122;2022-11-15T08:23:49;10.70;73.10
42227;DHT22;27892;52.378;13.122;2022-11-15T08:26:15;10.80;73.10
42227;DHT22;27892;52.378;13.122;2022-11-15T08:28:41;10.90;73.90
42227;DHT22;27892;52.378;13.122;2022-11-15T08:31:06;12.00;75.80
42227;DHT22;27892;52.378;13.122;2022-11-15T08:33:33;13.20;70.90
42227;DHT22;27892;52.378;13.122;2022-11-15T08:35:59;13.60;66.00
42227;DHT22;27892;52.378;13.122;2022-11-15T08:38:26;13.30;64.70
42227;DHT22;27892;52.378;13.122;2022-11-15T08:40:53;13.10;65.40
42227;DHT22;27892;52.378;13.122;2022-11-15T08:43:24;13.50;65.10
42227;DHT22;27892;52.378;13.122;2022-11-15T08:45:49;14.20;63.80
42227;DHT22;27892;52.378;13.122;2022-11-15T08:48:15;15.20;63.10
42227;DHT22;27892;52.378;13.122;2022-11-15T08:50:41;16.10;61.00
42227;DHT22;27892;52.378;13.122;2022-11-15T08:53:09;16.50;58.10
42227;DHT22;27892;52.378;13.122;2022-11-15T08:55:39;16.50;57.70
42227;DHT22;27892;52.378;13.122;2022-11-15T08:58:05;16.00;56.00
42227;DHT22;27892;52.378;13.122;2022-11-15T09:00:31;15.30;57.50
42227;DHT22;27892;52.378;13.122;2022-11-15T09:02:57;14.80;58.60
42227;DHT22;27892;52.378;13.122;2022-11-15T09:05:23;14.30;58.40
42227;DHT22;27892;52.378;13.122;2022-11-15T09:07:53;14.00;59.70
42227;DHT22;27892;52.378;13.122;2022-11-15T09:10:19;13.90;60.60
42227;DHT22;27892;52.378;13.122;2022-11-15T09:12:44;13.70;60.70
42227;DHT22;27892;52.378;13.122;2022-11-15T09:15:14;13.60;60.90
42227;DHT22;27892;52.378;13.122;2022-11-15T09:17:40;13.30;62.20
42227;DHT22;27892;52.378;13.122;2022-11-15T09:20:06;13.30;62.40
42227;DHT22;27892;52.378;13.122;2022-11-15T09:22:32;13.00;63.00
42227;DHT22;27892;52.378;13.122;2022-11-15T09:24:57;12.80;64.00
42227;DHT22;27892;52.378;13.122;2022-11-15T09:27:28;12.90;64.80
42227;DHT22;27892;52.378;13.122;2022-11-15T09:29:53;13.00;63.80
42227;DHT22;27892;52.378;13.122;2022-11-15T09:32:19;13.00;64.60
42227;DHT22;27892;52.378;13.122;2022-11-15T09:34:44;13.30;65.50
42227;DHT22;27892;52.378;13.122;2022-11-15T09:37:11;13.80;64.90
42227;DHT22;27892;52.378;13.122;2022-11-15T09:39:37;14.40;63.60
42227;DHT22;27892;52.378;13.122;2022-11-15T09:48:10;15.70;59.60
42227;DHT22;27892;52.378;13.122;2022-11-15T09:50:38;15.50;57.70
42227;DHT22;27892;52.378;13.122;2022-11-15T09:53:10;15.80;59.30
42227;DHT22;27892;52.378;13.122;2022-11-15T09:55:59;16.60;58.90
42227;DHT22;27892;52.378;13.122;2022-11-15T09:58:39;17.30;56.80
42227;DHT22;27892;52.378;13.122;2022-11-15T10:01:17;17.60;54.90
42227;DHT22;27892;52.378;13.122;2022-11-15T10:03:45;17.50;54.70
42227;DHT22;27892;52.378;13.122;2022-11-15T10:06:31;17.70;55.50
42227;DHT22;27892;52.378;13.122;2022-11-15T10:10:04;17.90;54.50
42227;DHT22;27892;52.378;13.122;2022-11-15T10:12:29;18.20;54.90
42227;DHT22;27892;52.378;13.122;2022-11-15T10:15:16;18.40;54.10
42227;DHT22;27892;52.378;13.122;2022-11-15T10:18:35;18.50;53.80
42227;DHT22;27892;52.378;13.122;2022-11-15T10:21:25;18.80;52.30
42227;DHT22;27892;52.378;13.122;2022-11-15T10:23:53;19.00;51.20
42227;DHT22;27892;52.378;13.122;2022-11-15T10:26:19;19.40;51.20
42227;DHT22;27892;52.378;13.122;2022-11-15T10:28:44;19.70;49.90
42227;DHT22;27892;52.378;13.122;2022-11-15T10:31:27;19.70;49.40
42227;DHT22;27892;52.378;13.122;2022-11-15T10:36:36;19.00;50.20
42227;DHT22;27892;52.378;13.122;2022-11-15T10:39:03;19.10;50.30
42227;DHT22;27892;52.378;13.122;2022-11-15T10:41:31;19.80;48.70
42227;DHT22;27892;52.378;13.122;2022-11-15T10:49:32;19.80;47.20
42227;DHT22;27892;52.378;13.122;2022-11-15T10:52:16;19.60;48.50
42227;DHT22;27892;52.378;13.122;2022-11-15T10:57:37;19.90;48.90
42227;DHT22;27892;52.378;13.122;2022-11-15T11:05:37;19.40;47.80
42227;DHT22;27892;52.378;13.122;2022-11-15T11:10:30;19.50;49.80
42227;DHT22;27892;52.378;13.122;2022-11-15T11:12:55;19.40;49.50
42227;DHT22;27892;52.378;13.122;2022-11-15T11:15:24;19.10;49.20
42227;DHT22;27892;52.378;13.122;2022-11-15T11:18:06;18.80;49.50
42227;DHT22;27892;52.378;13.122;2022-11-15T11:20:49;19.00;49.90
42227;DHT22;27892;52.378;13.122;2022-11-15T11:26:25;18.80;50.30
42227;DHT22;27892;52.378;13.122;2022-11-15T11:29:22;19.20;50.40
42227;DHT22;27892;52.378;13.122;2022-11-15T11:40:12;21.00;46.60
42227;DHT22;27892;52.378;13.122;2022-11-15T11:45:55;21.30;46.60
42227;DHT22;27892;52.378;13.122;2022-11-15T11:48:40;22.00;46.30
42227;DHT22;27892;52.378;13.122;2022-11-15T11:51:28;22.30;44.70
42227;DHT22;27892;52.378;13.122;2022-11-15T11:54:08;22.90;44.50
42227;DHT22;27892;52.378;13.122;2022-11-15T11:56:38;23.50;43.70
42227;DHT22;27892;52.378;13.122;2022-11-15T11:59:32;24.00;42.10
42227;DHT22;27892;52.378;13.122;2022-11-15T12:02:09;24.30;41.80
42227;DHT22;27892;52.378;13.122;2022-11-15T12:04:42;24.10;40.90
42227;DHT22;27892;52.378;13.122;2022-11-15T12:07:17;23.70;41.50
42227;DHT22;27892;52.378;13.122;2022-11-15T12:10:04;23.70;41.60
42227;DHT22;27892;52.378;13.122;2022-11-15T12:12:47;23.50;41.10
42227;DHT22;27892;52.378;13.122;2022-11-15T12:15:27;23.30;41.90
42227;DHT22;27892;52.378;13.122;2022-11-15T12:17:56;23.10;42.30
42227;DHT22;27892;52.378;13.122;2022-11-15T12:20:25;22.50;42.10
42227;DHT22;27892;52.378;13.122;2022-11-15T12:23:14;21.90;43.10
42227;DHT22;27892;52.378;13.122;2022-11-15T12:25:49;21.70;44.40
42227;DHT22;27892;52.378;13.122;2022-11-15T12:36:03;20.20;46.20
42227;DHT22;27892;52.378;13.122;2022-11-15T12:41:18;19.30;47.70
42227;DHT22;27892;52.378;13.122;2022-11-15T12:43:45;19.00;48.60
42227;DHT22;27892;52.378;13.122;2022-11-15T12:46:21;18.90;49.00
42227;DHT22;27892;52.378;13.122;2022-11-15T12:48:51;18.70;49.70
42227;DHT22;27892;52.378;13.122;2022-11-15T12:51:20;18.60;50.20
42227;DHT22;27892;52.378;13.122;2022-11-15T12:53:46;18.60;50.40
42227;DHT22;27892;52.378;13.122;2022-11-15T12:58:44;18.40;50.80
42227;DHT22;27892;52.378;13.122;2022-11-15T13:07:01;18.10;51.70
42227;DHT22;27892;52.378;13.122;2022-11-15T13:11:57;18.30;51.70
42227;DHT22;27892;52.378;13.122;2022-11-15T13:17:27;18.30;51.80
42227;DHT22;27892;52.378;13.122;2022-11-15T13:19:59;18.40;51.90
42227;DHT22;27892;52.378;13.122;2022-11-15T13:22:39;18.30;52.00
42227;DHT22;27892;52.378;13.122;2022-11-15T13:30:40;18.30;51.80
42227;DHT22;27892;52.378;13.122;2022-11-15T13:36:01;18.20;52.50
42227;DHT22;27892;52.378;13.122;2022-11-15T13:38:32;18.20;52.30
42227;DHT22;27892;52.378;13.122;2022-11-15T13:40:59;18.40;52.50
42227;DHT22;27892;52.378;13.122;2022-11-15T13:43:29;18.30;52.00
42227;DHT22;27892;52.378;13.122;2022-11-15T13:46:21;18.20;52.40
42227;DHT22;27892;52.378;13.122;2022-11-15T13:48:55;18.10;52.70
42227;DHT22;27892;52.378;13.122;2022-11-15T13:53:53;18.00;52.90
42227;DHT22;27892;52.378;13.122;2022-11-15T13:56:20;18.10;53.00
42227;DHT22;27892;52.378;13.122;2022-11-15T13:58:46;18.00;53.10
42227;DHT22;27892;52.378;13.122;2022-11-15T14:01:19;18.10;53.30
42227;DHT22;27892;52.378;13.122;2022-11-15T14:03:53;18.00;53.40
42227;DHT22;27892;52.378;13.122;2022-11-15T14:06:22;17.90;53.60
42227;DHT22;27892;52.378;13.122;2022-11-15T14:11:32;17.80;54.00
42227;DHT22;27892;52.378;13.122;2022-11-15T14:16:42;17.60;54.50
42227;DHT22;27892;52.378;13.122;2022-11-15T14:24:41;17.30;55.80
42227;DHT22;27892;52.378;13.122;2022-11-15T14:27:18;17.30;55.30
42227;DHT22;27892;52.378;13.122;2022-11-15T14:29:44;17.20;55.60
42227;DHT22;27892;52.378;13.122;2022-11-15T14:34:45;17.10;55.70
42227;DHT22;27892;52.378;13.122;2022-11-15T14:37:22;17.00;55.70
42227;DHT22;27892;52.378;13.122;2022-11-15T14:39:48;16.90;56.30
42227;DHT22;27892;52.378;13.122;2022-11-15T14:42:14;16.80;55.90
42227;DHT22;27892;52.378;13.122;2022-11-15T14:44:40;16.60;56.00
42227;DHT22;27892;52.378;13.122;2022-11-15T14:47:05;16.40;57.20
42227;DHT22;27892;52.378;13.122;2022-11-15T14:49:31;16.40;57.30
42227;DHT22;27892;52.378;13.122;2022-11-15T14:51:57;16.30;57.70
42227;DHT22;27892;52.378;13.122;2022-11-15T14:54:22;16.30;57.90
42227;DHT22;27892;52.378;13.122;2022-11-15T14:56:48;16.30;58.00
42227;DHT22;27892;52.378;13.122;2022-11-15T14:59:13;16.20;57.70
42227;DHT22;27892;52.378;13.122;2022-11-15T15:01:39;16.10;57.80
42227;DHT22;27892;52.378;13.122;2022-11-15T15:04:05;15.90;58.70
42227;DHT22;27892;52.378;13.122;2022-11-15T15:06:30;15.90;59.20
42227;DHT22;27892;52.378;13.122;2022-11-15T15:08:56;15.90;59.50
42227;DHT22;27892;52.378;13.122;2022-11-15T15:11:27;15.90;59.40
42227;DHT22;27892;52.378;13.122;2022-11-15T15:13:54;15.90;59.40
42227;DHT22;27892;52.378;13.122;2022-11-15T15:16:22;15.70;59.70
42227;DHT22;27892;52.378;13.122;2022-11-15T15:18:49;15.70;59.90
42227;DHT22;27892;52.378;13.122;2022-11-15T15:21:26;15.70;60.20
42227;DHT22;27892;52.378;13.122;2022-11-15T15:23:53;15.60;60.30
42227;DHT22;27892;52.378;13.122;2022-11-15T15:26:25;15.60;60.30
42227;DHT22;27892;52.378;13.122;2022-11-15T15:28:51;15.60;60.50
42227;DHT22;27892;52.378;13.122;2022-11-15T15:31:17;15.50;60.60
42227;DHT22;27892;52.378;13.122;2022-11-15T15:33:44;15.40;60.80
42227;DHT22;27892;52.378;13.122;2022-11-15T15:36:14;15.30;61.40
42227;DHT22;27892;52.378;13.122;2022-11-15T15:38:41;15.30;61.10
42227;DHT22;27892;52.378;13.122;2022-11-15T15:41:11;15.30;61.60
42227;DHT22;27892;52.378;13.122;2022-11-15T15:43:37;15.30;61.40
42227;DHT22;27892;52.378;13.122;2022-11-15T15:46:02;15.20;61.50
42227;DHT22;27892;52.378;13.122;2022-11-15T15:48:28;15.20;61.50
42227;DHT22;27892;52.378;13.122;2022-11-15T15:50:53;15.10;61.80
42227;DHT22;27892;52.378;13.122;2022-11-15T15:53:19;15.00;62.00
42227;DHT22;27892;52.378;13.122;2022-11-15T15:55:45;15.00;61.90
42227;DHT22;27892;52.378;13.122;2022-11-15T15:58:10;14.90;62.30
42227;DHT22;27892;52.378;13.122;2022-11-15T16:00:36;14.90;62.40
42227;DHT22;27892;52.378;13.122;2022-11-15T16:03:03;14.80;62.30
42227;DHT22;27892;52.378;13.122;2022-11-15T16:05:28;14.70;63.00
42227;DHT22;27892;52.378;13.122;2022-11-15T16:07:54;14.70;63.10
42227;DHT22;27892;52.378;13.122;2022-11-15T16:10:27;14.70;63.40
42227;DHT22;27892;52.378;13.122;2022-11-15T16:12:53;14.60;63.50
42227;DHT22;27892;52.378;13.122;2022-11-15T16:15:20;14.60;63.80
42227;DHT22;27892;52.378;13.122;2022-11-15T16:17:52;14.50;63.80
42227;DHT22;27892;52.378;13.122;2022-11-15T16:20:31;14.50;64.20
42227;DHT22;27892;52.378;13.122;2022-11-15T16:22:58;14.40;64.60
42227;DHT22;27892;52.378;13.122;2022-11-15T16:25:25;14.40;64.70
42227;DHT22;27892;52.378;13.122;2022-11-15T16:27:50;14.30;65.30
42227;DHT22;27892;52.378;13.122;2022-11-15T16:30:19;14.30;65.30
42227;DHT22;27892;52.378;13.122;2022-11-15T16:32:45;14.20;65.70
42227;DHT22;27892;52.378;13.122;2022-11-15T16:35:16;14.10;66.20
42227;DHT22;27892;52.378;13.122;2022-11-15T16:37:42;14.10;66.30
42227;DHT22;27892;52.378;13.122;2022-11-15T16:40:30;14.10;66.10
42227;DHT22;27892;52.378;13.122;2022-11-15T16:42:57;14.10;66.40
42227;DHT22;27892;52.378;13.122;2022-11-15T16:45:25;14.00;66.50
42227;DHT22;27892;52.378;13.122;2022-11-15T16:47:52;13.90;67.10
42227;DHT22;27892;52.378;13.122;2022-11-15T16:50:27;13.90;67.00
42227;DHT22;27892;52.378;13.122;2022-11-15T16:52:57;13.90;67.40
42227;DHT22;27892;52.378;13.122;2022-11-15T16:55:26;13.90;67.40
42227;DHT22;27892;52.378;13.122;2022-11-15T16:57:53;13.80;67.60
42227;DHT22;27892;52.378;13.122;2022-11-15T17:00:19;13.80;67.70
42227;DHT22;27892;52.378;13.122;2022-11-15T17:02:47;13.80;67.80
42227;DHT22;27892;52.378;13.122;2022-11-15T17:05:15;13.70;68.10
42227;DHT22;27892;52.378;13.122;2022-11-15T17:07:41;13.70;68.50
42227;DHT22;27892;52.378;13.122;2022-11-15T17:10:09;13.60;68.70
42227;DHT22;27892;52.378;13.122;2022-11-15T17:12:35;13.60;68.70
42227;DHT22;27892;52.378;13.122;2022-11-15T17:15:01;13.60;68.70
42227;DHT22;27892;52.378;13.122;2022-11-15T17:17:29;13.60;68.60
42227;DHT22;27892;52.378;13.122;2022-11-15T17:19:55;13.60;68.40
42227;DHT22;27892;52.378;13.122;2022-11-15T17:22:21;13.50;68.20
42227;DHT22;27892;52.378;13.122;2022-11-15T17:24:47;13.50;68.80
42227;DHT22;27892;52.378;13.122;2022-11-15T17:27:13;13.50;69.10
42227;DHT22;27892;52.378;13.122;2022-11-15T17:29:40;13.50;69.30
42227;DHT22;27892;52.378;13.122;2022-11-15T17:32:06;13.50;69.30
42227;DHT22;27892;52.378;13.122;2022-11-15T17:34:32;13.50;69.10
42227;DHT22;27892;52.378;13.122;2022-11-15T17:36:58;13.50;69.10